Current Weather

Austin Mueller Municipal Ap

Austin Mueller Municipal Ap, Texas (KATT)

Report from: Saturday, February 4, 2023 3:51 AM UTC
Current time: Saturday, February 4, 2023 4:58 AM UTC

Nearby weather
Weather history
Weather forecast

Temperature7.8°C (46.0°F)
Dew point5.0°C (41.0°F)
Winds Calm
Visibility10 mi. (16.1 km)
Clouds Ceiling: Overcast 1,300 ft. (396 m)
Altimeter30.51 in.Hg (1033 mB)
Relative humidity82 %
Density altitude-1,410 ft. (-430 m)
Sea-level pressure103.4 kPa (1034 mB, 30.52 in.Hg)
Remarks Fully automated report
Automated weather observing station with precipitation discriminator
Flight conditions Marginal Visual Meteorological Conditions
Raw dataKATT 040351Z AUTO 00000KT 10SM OVC013 08/05 A3051 RMK AO2 SLP336 T00780050
An unhandled exception has occurred. See browser dev tools for details. Reload 🗙